createdAt,value
2022-07-30T00:00:33.209Z,18.70
2022-07-30T00:03:00.036Z,18.70
2022-07-30T00:05:26.911Z,18.60
2022-07-30T00:07:53.879Z,18.60
2022-07-30T00:10:22.931Z,18.40
2022-07-30T00:12:49.910Z,18.30
2022-07-30T00:15:16.859Z,18.40
2022-07-30T00:17:46.715Z,18.40
2022-07-30T00:20:16.263Z,18.20
2022-07-30T00:22:43.103Z,18.20
2022-07-30T00:38:59.182Z,17.90
2022-07-30T00:41:26.171Z,17.90
2022-07-30T00:48:17.851Z,18.00
2022-07-30T00:50:45.346Z,18.00
2022-07-30T00:53:12.194Z,17.90
2022-07-30T00:55:38.985Z,17.90
2022-07-30T00:58:05.796Z,17.90
2022-07-30T01:00:32.576Z,17.80
2022-07-30T01:02:59.326Z,17.80
2022-07-30T01:05:26.062Z,17.80
2022-07-30T01:07:52.938Z,17.90
2022-07-30T01:10:19.670Z,17.90
2022-07-30T01:12:46.746Z,17.80
2022-07-30T01:15:13.572Z,17.80
2022-07-30T01:17:40.680Z,17.80
2022-07-30T01:20:18.884Z,17.80
2022-07-30T01:22:50.802Z,17.70
2022-07-30T01:25:23.584Z,17.70
2022-07-30T01:27:52.188Z,17.70
2022-07-30T01:30:24.122Z,17.60
2022-07-30T01:32:51.927Z,17.60
2022-07-30T01:35:20.304Z,17.60
2022-07-30T01:37:47.874Z,17.60
2022-07-30T01:40:15.218Z,17.50
2022-07-30T01:42:42.581Z,17.50
2022-07-30T01:45:47.012Z,17.50
2022-07-30T01:48:14.847Z,17.40
2022-07-30T01:50:43.289Z,17.50
2022-07-30T01:53:10.700Z,17.40
2022-07-30T01:55:39.627Z,17.50
2022-07-30T01:58:06.698Z,17.40
2022-07-30T02:00:34.980Z,17.30
2022-07-30T02:03:02.143Z,17.20
2022-07-30T02:05:30.399Z,17.20
2022-07-30T02:08:07.517Z,17.20
2022-07-30T02:10:42.126Z,17.20
2022-07-30T02:13:10.221Z,17.10
2022-07-30T02:15:40.143Z,17.20
2022-07-30T02:18:15.352Z,17.10
2022-07-30T02:20:44.578Z,17.10
2022-07-30T02:23:16.129Z,17.00
2022-07-30T02:25:44.859Z,17.10
2022-07-30T02:28:13.033Z,17.00
2022-07-30T02:30:43.876Z,17.00
2022-07-30T02:33:12.800Z,17.00
2022-07-30T02:35:40.501Z,16.90
2022-07-30T02:38:08.069Z,16.90
2022-07-30T02:40:35.534Z,16.90
2022-07-30T02:43:02.684Z,16.90
2022-07-30T02:46:07.596Z,16.90
2022-07-30T02:48:36.317Z,16.90
2022-07-30T02:51:04.017Z,17.00
2022-07-30T02:53:31.230Z,16.90
2022-07-30T02:55:59.405Z,16.90
2022-07-30T02:58:27.430Z,16.90
2022-07-30T03:00:55.137Z,16.80
2022-07-30T03:03:22.018Z,16.80
2022-07-30T03:05:51.185Z,16.80
2022-07-30T03:08:19.921Z,16.80
2022-07-30T03:10:47.547Z,16.70
2022-07-30T03:13:15.496Z,16.70
2022-07-30T03:15:44.293Z,16.60
2022-07-30T03:18:12.463Z,16.60
2022-07-30T03:20:40.038Z,16.50
2022-07-30T03:23:08.292Z,16.50
2022-07-30T03:25:35.649Z,16.50
2022-07-30T03:28:03.937Z,16.50
2022-07-30T03:30:31.134Z,16.60
2022-07-30T03:32:58.032Z,16.60
2022-07-30T03:35:26.130Z,16.60
2022-07-30T03:37:54.054Z,16.60
2022-07-30T03:40:21.394Z,16.50
2022-07-30T03:42:48.702Z,16.50
2022-07-30T03:45:15.829Z,16.40
2022-07-30T03:51:25.296Z,16.40
2022-07-30T03:54:01.167Z,16.30
2022-07-30T03:56:28.033Z,16.20
2022-07-30T03:58:54.913Z,16.20
2022-07-30T04:01:26.268Z,16.20
2022-07-30T04:03:53.421Z,16.30
2022-07-30T04:06:20.197Z,16.30
2022-07-30T04:08:47.013Z,16.30
2022-07-30T04:11:13.788Z,16.40
2022-07-30T04:13:40.598Z,16.50
2022-07-30T04:16:39.240Z,16.50
2022-07-30T04:19:07.691Z,16.60
2022-07-30T04:21:36.015Z,16.60
2022-07-30T04:24:04.377Z,16.60
2022-07-30T04:26:33.227Z,16.60
2022-07-30T04:29:00.566Z,16.50
2022-07-30T04:31:28.297Z,16.60
2022-07-30T04:33:55.512Z,16.50
2022-07-30T04:36:32.552Z,16.50
2022-07-30T04:38:59.933Z,16.50
2022-07-30T04:41:26.693Z,16.50
2022-07-30T04:43:53.719Z,16.50
2022-07-30T04:50:39.361Z,16.50
2022-07-30T04:53:06.253Z,16.50
2022-07-30T04:55:33.943Z,16.60
2022-07-30T04:58:02.857Z,16.60
2022-07-30T05:00:32.394Z,16.70
2022-07-30T05:03:00.722Z,16.70
2022-07-30T05:05:28.141Z,16.80
2022-07-30T05:07:55.066Z,16.80
2022-07-30T05:10:21.937Z,16.90
2022-07-30T05:12:48.695Z,16.90
2022-07-30T05:15:15.938Z,17.00
2022-07-30T05:17:42.759Z,17.00
2022-07-30T05:20:09.887Z,17.00
2022-07-30T05:22:36.622Z,17.10
2022-07-30T05:25:06.418Z,17.10
2022-07-30T05:27:43.241Z,17.20
2022-07-30T05:30:10.302Z,17.20
2022-07-30T05:32:39.269Z,17.20
2022-07-30T05:35:06.546Z,17.30
2022-07-30T05:37:33.728Z,17.30
2022-07-30T05:40:03.338Z,17.40
2022-07-30T05:42:30.301Z,17.40
2022-07-30T05:44:57.267Z,17.50
2022-07-30T05:48:01.634Z,17.50
2022-07-30T05:50:28.334Z,17.50
2022-07-30T05:52:56.258Z,17.50
2022-07-30T05:55:23.065Z,17.60
2022-07-30T05:57:49.834Z,17.60
2022-07-30T06:00:17.475Z,17.70
2022-07-30T06:02:44.765Z,17.70
2022-07-30T06:05:11.718Z,17.80
2022-07-30T06:07:38.455Z,17.90
2022-07-30T06:10:06.735Z,18.00
2022-07-30T06:12:33.576Z,18.30
2022-07-30T06:15:00.888Z,18.30
2022-07-30T06:17:41.128Z,18.40
2022-07-30T06:20:09.998Z,18.50
2022-07-30T06:22:37.107Z,18.60
2022-07-30T06:25:04.180Z,18.60
2022-07-30T06:27:32.475Z,18.70
2022-07-30T06:30:01.151Z,18.70
2022-07-30T06:32:27.870Z,18.80
2022-07-30T06:35:02.515Z,18.90
2022-07-30T06:38:06.386Z,18.90
2022-07-30T06:40:18.227Z,18.90
2022-07-30T06:42:45.216Z,19.00
2022-07-30T06:45:12.038Z,19.10
2022-07-30T06:48:16.387Z,19.60
2022-07-30T06:50:43.156Z,20.00
2022-07-30T06:53:09.908Z,19.70
2022-07-30T06:55:36.740Z,19.80
2022-07-30T06:58:03.799Z,19.60
2022-07-30T07:00:30.733Z,19.70
2022-07-30T07:02:57.702Z,19.80
2022-07-30T07:05:25.311Z,19.70
2022-07-30T07:07:59.284Z,19.80
2022-07-30T07:10:27.072Z,19.90
2022-07-30T07:12:53.951Z,20.00
2022-07-30T07:15:22.370Z,20.10
2022-07-30T07:18:02.943Z,20.00
2022-07-30T07:20:29.619Z,20.30
2022-07-30T07:22:56.390Z,20.20
2022-07-30T07:25:24.632Z,20.40
2022-07-30T07:28:10.904Z,20.50
2022-07-30T07:30:38.911Z,20.60
2022-07-30T07:33:05.727Z,20.80
2022-07-30T07:35:33.493Z,20.80
2022-07-30T07:38:15.387Z,21.00
2022-07-30T07:40:42.085Z,21.00
2022-07-30T07:43:08.779Z,20.80
2022-07-30T07:45:35.511Z,20.60
2022-07-30T07:51:48.015Z,20.80
2022-07-30T07:54:23.358Z,20.70
2022-07-30T07:56:52.898Z,21.20
2022-07-30T07:59:20.077Z,21.20
2022-07-30T08:01:47.093Z,21.50
2022-07-30T08:04:15.361Z,22.00
2022-07-30T08:06:42.162Z,21.50
2022-07-30T08:09:10.620Z,21.20
2022-07-30T08:11:37.739Z,21.00
2022-07-30T08:14:04.463Z,20.90
2022-07-30T08:16:32.137Z,21.00
2022-07-30T08:18:59.627Z,21.00
2022-07-30T08:21:26.675Z,21.10
2022-07-30T08:23:54.193Z,21.20
2022-07-30T08:26:21.350Z,21.20
2022-07-30T08:28:48.197Z,21.40
2022-07-30T08:31:21.707Z,21.50
2022-07-30T08:33:49.602Z,21.60
2022-07-30T08:36:24.106Z,21.60
2022-07-30T08:39:02.647Z,21.60
2022-07-30T08:41:34.714Z,21.80
2022-07-30T08:44:11.619Z,21.90
2022-07-30T08:46:47.671Z,22.00
2022-07-30T08:57:16.089Z,22.40
2022-07-30T09:00:01.205Z,22.60
2022-07-30T09:02:37.222Z,22.70
2022-07-30T09:05:12.766Z,22.80
2022-07-30T09:07:44.278Z,22.80
2022-07-30T09:10:15.234Z,22.80
2022-07-30T09:12:47.670Z,22.80
2022-07-30T09:15:26.406Z,22.90
2022-07-30T09:18:05.633Z,23.00
2022-07-30T09:20:38.337Z,23.40
2022-07-30T09:23:11.596Z,23.80
2022-07-30T09:25:39.504Z,24.50
2022-07-30T09:35:36.789Z,25.80
2022-07-30T09:38:06.667Z,26.10
2022-07-30T09:40:33.868Z,26.30
2022-07-30T09:43:04.260Z,26.60
2022-07-30T09:45:34.574Z,27.00
2022-07-30T09:48:02.101Z,27.90
2022-07-30T09:51:06.242Z,28.20
2022-07-30T09:53:55.972Z,28.90
2022-07-30T09:56:29.977Z,29.40
2022-07-30T09:58:57.133Z,28.90
2022-07-30T10:01:24.044Z,27.70
2022-07-30T10:04:22.968Z,26.60
2022-07-30T10:06:52.341Z,25.90
2022-07-30T10:09:45.327Z,25.30
2022-07-30T10:12:17.440Z,25.20
2022-07-30T10:14:46.611Z,25.10
2022-07-30T10:17:14.586Z,25.10
2022-07-30T10:19:42.084Z,25.20
2022-07-30T10:22:12.905Z,25.30
2022-07-30T10:24:44.401Z,25.30
2022-07-30T10:27:12.357Z,25.30
2022-07-30T10:29:42.531Z,25.20
2022-07-30T10:32:09.810Z,25.40
2022-07-30T10:34:38.162Z,25.40
2022-07-30T10:37:13.174Z,25.10
2022-07-30T10:39:47.154Z,25.10
2022-07-30T10:42:34.542Z,25.10
2022-07-30T10:45:04.480Z,25.10
2022-07-30T10:47:35.517Z,25.10
2022-07-30T10:50:45.201Z,25.30
2022-07-30T10:53:31.541Z,25.50
2022-07-30T10:56:15.181Z,25.60
2022-07-30T10:59:03.344Z,25.50
2022-07-30T11:01:51.757Z,25.40
2022-07-30T11:04:25.871Z,25.50
2022-07-30T11:07:17.402Z,25.50
2022-07-30T11:10:09.163Z,25.40
2022-07-30T11:12:59.168Z,25.40
2022-07-30T11:15:49.406Z,25.80
2022-07-30T11:18:28.798Z,26.10
2022-07-30T11:21:20.627Z,25.90
2022-07-30T11:24:00.087Z,26.10
2022-07-30T11:26:46.649Z,26.00
2022-07-30T11:29:50.504Z,26.20
2022-07-30T11:32:29.665Z,26.30
2022-07-30T11:35:17.788Z,26.00
2022-07-30T11:38:02.009Z,25.80
2022-07-30T11:40:40.505Z,25.80
2022-07-30T11:44:05.327Z,26.10
2022-07-30T11:46:34.306Z,26.30
2022-07-30T11:49:08.597Z,26.40
2022-07-30T11:52:13.620Z,26.60
2022-07-30T11:54:53.890Z,26.80
2022-07-30T11:57:21.134Z,27.00
2022-07-30T11:59:58.148Z,27.00
2022-07-30T12:02:28.452Z,27.00
2022-07-30T12:04:55.445Z,27.10
2022-07-30T12:07:23.455Z,27.30
2022-07-30T12:09:50.447Z,27.00
2022-07-30T12:12:24.362Z,26.50
2022-07-30T12:14:51.795Z,26.20
2022-07-30T12:17:19.945Z,26.40
2022-07-30T12:19:48.903Z,26.80
2022-07-30T12:22:16.788Z,26.90
2022-07-30T12:24:43.771Z,27.10
2022-07-30T12:27:10.908Z,27.20
2022-07-30T12:29:37.996Z,27.60
2022-07-30T12:32:05.275Z,27.70
2022-07-30T12:34:33.833Z,27.70
2022-07-30T12:37:07.594Z,27.80
2022-07-30T12:39:34.693Z,27.70
2022-07-30T12:42:03.470Z,27.80
2022-07-30T12:44:37.982Z,27.60
2022-07-30T12:47:06.662Z,27.80
2022-07-30T12:49:37.715Z,27.80
2022-07-30T12:52:49.939Z,27.80
2022-07-30T12:55:17.712Z,27.50
2022-07-30T12:58:07.596Z,27.60
2022-07-30T13:00:45.141Z,27.80
2022-07-30T13:03:22.692Z,28.00
2022-07-30T13:05:56.662Z,28.50
2022-07-30T13:08:42.256Z,28.60
2022-07-30T13:11:09.253Z,28.50
2022-07-30T13:13:37.275Z,28.70
2022-07-30T13:16:05.712Z,28.80
2022-07-30T13:18:33.584Z,29.10
2022-07-30T13:21:01.504Z,29.10
2022-07-30T13:23:30.076Z,29.10
2022-07-30T13:25:57.245Z,29.50
2022-07-30T13:28:25.053Z,29.50
2022-07-30T13:30:54.438Z,29.50
2022-07-30T13:33:21.703Z,29.30
2022-07-30T13:35:48.562Z,29.30
2022-07-30T13:38:16.258Z,29.40
2022-07-30T13:40:43.917Z,29.50
2022-07-30T13:43:12.336Z,29.50
2022-07-30T13:46:18.576Z,29.60
2022-07-30T13:48:52.143Z,29.40
2022-07-30T13:51:21.767Z,29.30
2022-07-30T13:53:49.064Z,29.20
2022-07-30T13:56:16.905Z,29.30
2022-07-30T13:58:47.296Z,29.60
2022-07-30T14:01:15.807Z,29.80
2022-07-30T14:11:58.602Z,31.20
2022-07-30T14:14:25.463Z,31.50
2022-07-30T14:16:53.866Z,31.40
2022-07-30T14:19:23.061Z,31.20
2022-07-30T14:21:52.835Z,31.30
2022-07-30T14:24:20.745Z,31.20
2022-07-30T14:26:47.823Z,31.10
2022-07-30T14:29:14.650Z,31.20
2022-07-30T14:31:41.504Z,31.50
2022-07-30T14:34:08.804Z,31.40
2022-07-30T14:36:37.294Z,31.40
2022-07-30T14:39:04.982Z,30.90
2022-07-30T14:41:32.457Z,30.90
2022-07-30T14:44:02.536Z,31.40
2022-07-30T14:46:29.720Z,31.60
2022-07-30T14:48:57.856Z,31.80
2022-07-30T14:51:26.726Z,32.00
2022-07-30T14:53:56.715Z,31.90
2022-07-30T14:56:25.300Z,31.80
2022-07-30T14:58:53.123Z,31.70
2022-07-30T15:01:20.147Z,31.90
2022-07-30T15:03:47.501Z,31.30
2022-07-30T15:06:15.547Z,31.20
2022-07-30T15:09:20.252Z,31.50
2022-07-30T15:12:08.598Z,31.90
2022-07-30T15:14:34.575Z,32.10
2022-07-30T15:17:04.203Z,32.00
2022-07-30T15:19:33.841Z,31.60
2022-07-30T15:22:02.685Z,31.70
2022-07-30T15:24:30.505Z,31.90
2022-07-30T15:26:57.463Z,32.20
2022-07-30T15:29:24.607Z,32.70
2022-07-30T15:31:51.736Z,32.80
2022-07-30T15:34:18.603Z,32.90
2022-07-30T15:36:45.790Z,33.00
2022-07-30T15:39:13.512Z,33.40
2022-07-30T15:41:42.612Z,33.40
2022-07-30T15:44:09.654Z,32.90
2022-07-30T15:46:36.377Z,32.50
2022-07-30T15:49:06.816Z,32.30
2022-07-30T15:51:37.428Z,32.40
2022-07-30T15:54:04.342Z,32.30
2022-07-30T15:56:39.017Z,32.30
2022-07-30T15:59:05.976Z,32.70
2022-07-30T16:01:33.618Z,32.50
2022-07-30T16:04:00.378Z,32.40
2022-07-30T16:06:27.204Z,32.80
2022-07-30T16:13:12.303Z,33.00
2022-07-30T16:15:39.037Z,32.80
2022-07-30T16:18:06.353Z,32.90
2022-07-30T16:20:37.686Z,33.00
2022-07-30T16:23:10.329Z,32.80
2022-07-30T16:25:44.886Z,32.80
2022-07-30T16:28:11.572Z,32.80
2022-07-30T16:30:50.411Z,32.80
2022-07-30T16:33:18.217Z,32.90
2022-07-30T16:35:48.927Z,32.90
2022-07-30T16:38:23.180Z,32.20
2022-07-30T16:40:50.012Z,31.20
2022-07-30T16:43:19.820Z,31.00
2022-07-30T16:45:50.244Z,31.10
2022-07-30T16:48:17.006Z,31.20
2022-07-30T16:50:44.389Z,31.10
2022-07-30T16:53:14.222Z,30.90
2022-07-30T16:55:42.083Z,31.10
2022-07-30T16:58:09.361Z,31.20
2022-07-30T17:00:36.293Z,31.40
2022-07-30T17:03:03.419Z,31.50
2022-07-30T17:05:30.160Z,31.80
2022-07-30T17:07:56.940Z,31.80
2022-07-30T17:14:42.499Z,31.70
2022-07-30T17:17:13.797Z,31.90
2022-07-30T17:19:46.501Z,32.20
2022-07-30T17:22:13.322Z,32.00
2022-07-30T17:24:40.207Z,31.90
2022-07-30T17:27:08.932Z,31.10
2022-07-30T17:29:50.541Z,30.40
2022-07-30T17:32:20.737Z,29.80
2022-07-30T17:34:47.817Z,29.40
2022-07-30T17:37:15.221Z,29.20
2022-07-30T17:40:19.004Z,28.90
2022-07-30T17:42:35.214Z,28.50
2022-07-30T17:45:02.087Z,28.30
2022-07-30T17:47:34.358Z,28.20
2022-07-30T17:50:01.218Z,28.00
2022-07-30T17:52:28.078Z,28.10
2022-07-30T17:54:55.004Z,28.20
2022-07-30T17:57:22.039Z,28.30
2022-07-30T17:59:53.973Z,28.30
2022-07-30T18:02:28.627Z,28.30
2022-07-30T18:05:02.338Z,28.10
2022-07-30T18:07:29.107Z,27.90
2022-07-30T18:10:33.504Z,27.80
2022-07-30T18:13:25.912Z,27.60
2022-07-30T18:15:47.258Z,27.50
2022-07-30T18:18:14.656Z,27.60
2022-07-30T18:20:48.094Z,27.70
2022-07-30T18:23:19.024Z,27.70
2022-07-30T18:25:53.348Z,27.80
2022-07-30T18:28:21.971Z,27.90
2022-07-30T18:30:48.867Z,28.00
2022-07-30T18:33:16.230Z,28.10
2022-07-30T18:35:43.409Z,28.10
2022-07-30T18:38:10.508Z,28.00
2022-07-30T18:40:37.471Z,27.90
2022-07-30T18:43:04.345Z,27.80
2022-07-30T18:45:35.236Z,27.70
2022-07-30T18:48:03.800Z,27.50
2022-07-30T18:50:30.926Z,27.30
2022-07-30T18:52:57.752Z,27.20
2022-07-30T18:55:24.584Z,27.10
2022-07-30T18:57:52.069Z,27.10
2022-07-30T19:00:34.171Z,27.00
2022-07-30T19:03:02.772Z,26.80
2022-07-30T19:05:29.718Z,26.80
2022-07-30T19:08:35.194Z,26.70
2022-07-30T19:11:01.955Z,26.70
2022-07-30T19:13:28.940Z,26.60
2022-07-30T19:16:33.357Z,26.50
2022-07-30T19:19:00.167Z,26.50
2022-07-30T19:21:26.932Z,26.40
2022-07-30T19:23:53.774Z,26.30
2022-07-30T19:26:21.439Z,26.30
2022-07-30T19:28:48.262Z,26.40
2022-07-30T19:31:16.297Z,26.30
2022-07-30T19:33:43.320Z,26.30
2022-07-30T19:36:10.149Z,26.20
2022-07-30T19:38:39.927Z,26.30
2022-07-30T19:41:07.151Z,26.20
2022-07-30T19:43:34.414Z,26.20
2022-07-30T19:46:04.198Z,26.10
2022-07-30T19:48:31.589Z,26.00
2022-07-30T19:53:46.688Z,26.00
2022-07-30T19:56:13.449Z,26.00
2022-07-30T19:58:41.246Z,26.10
2022-07-30T20:01:08.803Z,26.10
2022-07-30T20:03:35.961Z,26.00
2022-07-30T20:06:05.963Z,26.00
2022-07-30T20:08:37.190Z,26.00
2022-07-30T20:11:07.341Z,25.90
2022-07-30T20:13:44.969Z,25.80
2022-07-30T20:16:14.222Z,25.80
2022-07-30T20:23:00.183Z,25.50
2022-07-30T20:25:27.242Z,25.40
2022-07-30T20:28:04.038Z,25.40
2022-07-30T20:30:31.578Z,25.30
2022-07-30T20:32:58.623Z,25.40
2022-07-30T20:35:26.653Z,25.50
2022-07-30T20:37:54.681Z,25.30
2022-07-30T20:40:23.163Z,25.40
2022-07-30T20:42:50.254Z,25.30
2022-07-30T20:45:17.000Z,25.20
2022-07-30T20:47:52.482Z,25.30
2022-07-30T20:50:19.517Z,25.20
2022-07-30T20:52:58.258Z,25.10
2022-07-30T20:55:25.417Z,25.10
2022-07-30T20:58:01.254Z,25.00
2022-07-30T21:00:41.602Z,25.00
2022-07-30T21:03:13.615Z,25.00
2022-07-30T21:05:43.289Z,25.10
2022-07-30T21:10:58.064Z,24.80
2022-07-30T21:13:27.146Z,24.70
2022-07-30T21:16:02.511Z,24.70
2022-07-30T21:19:07.961Z,24.60
2022-07-30T21:21:41.785Z,24.60
2022-07-30T21:24:19.344Z,24.60
2022-07-30T21:26:48.591Z,24.50
2022-07-30T21:29:15.882Z,24.60
2022-07-30T21:32:02.235Z,24.50
2022-07-30T21:34:35.160Z,24.50
2022-07-30T21:37:07.011Z,24.70
2022-07-30T21:39:40.193Z,24.60
2022-07-30T21:42:07.998Z,24.50
2022-07-30T21:44:34.853Z,24.70
2022-07-30T21:47:01.614Z,24.80
2022-07-30T21:49:28.380Z,24.60
2022-07-30T21:51:58.414Z,24.60
2022-07-30T21:54:28.755Z,24.60
2022-07-30T21:56:58.321Z,24.60
2022-07-30T21:59:25.501Z,24.60
2022-07-30T22:01:55.154Z,24.70
2022-07-30T22:04:22.091Z,24.50
2022-07-30T22:06:48.800Z,24.20
2022-07-30T22:09:19.763Z,24.00
2022-07-30T22:12:01.218Z,23.80
2022-07-30T22:14:29.068Z,23.70
2022-07-30T22:16:56.066Z,23.60
2022-07-30T22:20:00.541Z,23.60
2022-07-30T22:22:30.186Z,23.70
2022-07-30T22:25:02.582Z,23.60
2022-07-30T22:27:40.002Z,23.60
2022-07-30T22:30:21.130Z,23.50
2022-07-30T22:32:49.528Z,23.50
2022-07-30T22:35:16.363Z,23.50
2022-07-30T22:37:43.828Z,23.50
2022-07-30T22:40:13.122Z,23.50
2022-07-30T22:42:49.693Z,23.40
2022-07-30T22:45:35.277Z,23.30
2022-07-30T22:48:10.143Z,23.30
2022-07-30T22:50:39.998Z,23.30
2022-07-30T22:53:23.504Z,23.30
2022-07-30T22:55:54.906Z,23.40
2022-07-30T22:58:22.068Z,23.40
2022-07-30T23:00:53.222Z,23.40
2022-07-30T23:03:20.040Z,23.40
2022-07-30T23:05:56.038Z,23.30
2022-07-30T23:08:30.341Z,23.30
2022-07-30T23:10:59.275Z,23.30
2022-07-30T23:12:15.155Z,26.00
2022-07-30T23:12:31.256Z,24.90
2022-07-30T23:13:27.197Z,23.30
2022-07-30T23:15:53.897Z,23.40
2022-07-30T23:18:20.644Z,23.40
2022-07-30T23:20:47.415Z,23.50
2022-07-30T23:23:14.100Z,23.50
2022-07-30T23:25:40.806Z,23.50
2022-07-30T23:28:07.671Z,23.40
2022-07-30T23:30:34.565Z,23.40
2022-07-30T23:33:01.443Z,23.50
2022-07-30T23:35:28.182Z,23.50
2022-07-30T23:37:55.031Z,23.50
2022-07-30T23:40:22.492Z,23.50
2022-07-30T23:49:57.905Z,23.40
2022-07-30T23:52:25.171Z,23.50
2022-07-30T23:54:52.626Z,23.40
2022-07-30T23:57:19.725Z,23.30
2022-07-30T23:59:46.930Z,23.20
